sensor_id;sensor_type;location;lat;lon;timestamp;P1;durP1;ratioP1;P2;durP2;ratioP2
33858;SDS011;20156;47.486;12.074;2022-08-19T00:01:34;5.25;;;3.92;;
33858;SDS011;20156;47.486;12.074;2022-08-19T00:04:03;5.00;;;4.50;;
33858;SDS011;20156;47.486;12.074;2022-08-19T00:06:31;5.25;;;4.50;;
33858;SDS011;20156;47.486;12.074;2022-08-19T00:08:57;11.20;;;4.72;;
33858;SDS011;20156;47.486;12.074;2022-08-19T00:11:25;6.22;;;4.60;;
33858;SDS011;20156;47.486;12.074;2022-08-19T00:13:52;4.50;;;4.10;;
33858;SDS011;20156;47.486;12.074;2022-08-19T00:16:19;5.18;;;4.53;;
33858;SDS011;20156;47.486;12.074;2022-08-19T00:18:45;5.57;;;4.25;;
33858;SDS011;20156;47.486;12.074;2022-08-19T00:21:11;5.43;;;4.43;;
33858;SDS011;20156;47.486;12.074;2022-08-19T00:23:37;4.82;;;4.30;;
33858;SDS011;20156;47.486;12.074;2022-08-19T00:26:03;6.20;;;3.70;;
33858;SDS011;20156;47.486;12.074;2022-08-19T00:28:29;7.53;;;4.53;;
33858;SDS011;20156;47.486;12.074;2022-08-19T00:30:55;4.50;;;4.07;;
33858;SDS011;20156;47.486;12.074;2022-08-19T00:33:21;4.72;;;4.32;;
33858;SDS011;20156;47.486;12.074;2022-08-19T00:35:46;7.28;;;5.10;;
33858;SDS011;20156;47.486;12.074;2022-08-19T00:38:12;6.68;;;5.80;;
33858;SDS011;20156;47.486;12.074;2022-08-19T00:40:38;6.70;;;5.95;;
33858;SDS011;20156;47.486;12.074;2022-08-19T00:43:08;7.07;;;5.07;;
33858;SDS011;20156;47.486;12.074;2022-08-19T00:45:35;6.00;;;5.07;;
33858;SDS011;20156;47.486;12.074;2022-08-19T00:48:02;5.60;;;5.07;;
33858;SDS011;20156;47.486;12.074;2022-08-19T00:50:31;7.15;;;5.10;;
33858;SDS011;20156;47.486;12.074;2022-08-19T00:52:58;5.18;;;4.68;;
33858;SDS011;20156;47.486;12.074;2022-08-19T00:55:25;5.82;;;4.57;;
33858;SDS011;20156;47.486;12.074;2022-08-19T00:58:01;7.72;;;4.80;;
33858;SDS011;20156;47.486;12.074;2022-08-19T01:00:30;5.35;;;4.47;;
33858;SDS011;20156;47.486;12.074;2022-08-19T01:02:56;6.40;;;4.30;;
33858;SDS011;20156;47.486;12.074;2022-08-19T01:05:24;7.30;;;5.03;;
33858;SDS011;20156;47.486;12.074;2022-08-19T01:07:53;5.40;;;4.55;;
33858;SDS011;20156;47.486;12.074;2022-08-19T01:10:20;5.68;;;4.68;;
33858;SDS011;20156;47.486;12.074;2022-08-19T01:12:49;7.60;;;4.53;;
33858;SDS011;20156;47.486;12.074;2022-08-19T01:15:17;8.07;;;4.78;;
33858;SDS011;20156;47.486;12.074;2022-08-19T01:17:46;4.85;;;4.07;;
33858;SDS011;20156;47.486;12.074;2022-08-19T01:20:15;6.45;;;4.50;;
33858;SDS011;20156;47.486;12.074;2022-08-19T01:23:02;6.70;;;4.40;;
33858;SDS011;20156;47.486;12.074;2022-08-19T01:25:32;5.50;;;4.00;;
33858;SDS011;20156;47.486;12.074;2022-08-19T01:28:21;5.50;;;4.50;;
33858;SDS011;20156;47.486;12.074;2022-08-19T01:30:51;6.50;;;5.00;;
33858;SDS011;20156;47.486;12.074;2022-08-19T01:33:17;4.95;;;4.32;;
33858;SDS011;20156;47.486;12.074;2022-08-19T01:35:44;5.30;;;4.40;;
33858;SDS011;20156;47.486;12.074;2022-08-19T01:38:18;6.07;;;4.75;;
33858;SDS011;20156;47.486;12.074;2022-08-19T01:40:46;5.68;;;5.00;;
33858;SDS011;20156;47.486;12.074;2022-08-19T01:43:11;5.40;;;4.90;;
33858;SDS011;20156;47.486;12.074;2022-08-19T01:45:36;6.88;;;5.05;;
33858;SDS011;20156;47.486;12.074;2022-08-19T01:48:05;4.55;;;4.18;;
33858;SDS011;20156;47.486;12.074;2022-08-19T01:50:32;7.32;;;5.10;;
33858;SDS011;20156;47.486;12.074;2022-08-19T01:52:59;5.45;;;4.25;;
33858;SDS011;20156;47.486;12.074;2022-08-19T01:55:26;5.25;;;4.03;;
33858;SDS011;20156;47.486;12.074;2022-08-19T01:57:53;7.63;;;4.78;;
33858;SDS011;20156;47.486;12.074;2022-08-19T02:00:23;7.70;;;4.78;;
33858;SDS011;20156;47.486;12.074;2022-08-19T02:02:50;6.57;;;5.10;;
33858;SDS011;20156;47.486;12.074;2022-08-19T02:05:16;5.10;;;4.68;;
33858;SDS011;20156;47.486;12.074;2022-08-19T02:07:43;7.75;;;5.00;;
33858;SDS011;20156;47.486;12.074;2022-08-19T02:10:12;7.85;;;4.80;;
33858;SDS011;20156;47.486;12.074;2022-08-19T02:12:40;5.00;;;4.50;;
33858;SDS011;20156;47.486;12.074;2022-08-19T02:15:06;6.32;;;5.25;;
33858;SDS011;20156;47.486;12.074;2022-08-19T02:17:33;5.53;;;4.95;;
33858;SDS011;20156;47.486;12.074;2022-08-19T02:19:58;6.03;;;4.75;;
33858;SDS011;20156;47.486;12.074;2022-08-19T02:22:24;5.57;;;5.07;;
33858;SDS011;20156;47.486;12.074;2022-08-19T02:24:53;7.03;;;5.40;;
33858;SDS011;20156;47.486;12.074;2022-08-19T02:27:19;7.03;;;5.18;;
33858;SDS011;20156;47.486;12.074;2022-08-19T02:29:47;5.63;;;4.55;;
33858;SDS011;20156;47.486;12.074;2022-08-19T02:32:14;6.05;;;4.82;;
33858;SDS011;20156;47.486;12.074;2022-08-19T02:34:39;6.53;;;4.05;;
33858;SDS011;20156;47.486;12.074;2022-08-19T02:37:05;8.05;;;4.50;;
33858;SDS011;20156;47.486;12.074;2022-08-19T02:39:51;4.25;;;3.88;;
33858;SDS011;20156;47.486;12.074;2022-08-19T02:42:17;7.07;;;4.93;;
33858;SDS011;20156;47.486;12.074;2022-08-19T02:44:42;5.72;;;4.50;;
33858;SDS011;20156;47.486;12.074;2022-08-19T02:47:07;5.53;;;4.38;;
33858;SDS011;20156;47.486;12.074;2022-08-19T02:49:34;5.13;;;4.55;;
33858;SDS011;20156;47.486;12.074;2022-08-19T02:51:59;7.50;;;5.00;;
33858;SDS011;20156;47.486;12.074;2022-08-19T02:54:25;5.00;;;4.50;;
33858;SDS011;20156;47.486;12.074;2022-08-19T02:56:50;5.38;;;4.40;;
33858;SDS011;20156;47.486;12.074;2022-08-19T02:59:16;5.93;;;4.28;;
33858;SDS011;20156;47.486;12.074;2022-08-19T03:01:42;4.30;;;3.90;;
33858;SDS011;20156;47.486;12.074;2022-08-19T03:04:08;6.70;;;4.13;;
33858;SDS011;20156;47.486;12.074;2022-08-19T03:06:39;4.40;;;3.95;;
33858;SDS011;20156;47.486;12.074;2022-08-19T03:09:07;7.03;;;4.18;;
33858;SDS011;20156;47.486;12.074;2022-08-19T03:11:33;5.40;;;4.30;;
33858;SDS011;20156;47.486;12.074;2022-08-19T03:13:59;5.25;;;4.50;;
33858;SDS011;20156;47.486;12.074;2022-08-19T03:16:28;6.30;;;4.22;;
33858;SDS011;20156;47.486;12.074;2022-08-19T03:18:56;5.75;;;4.18;;
33858;SDS011;20156;47.486;12.074;2022-08-19T03:21:25;5.90;;;4.97;;
33858;SDS011;20156;47.486;12.074;2022-08-19T03:23:59;7.28;;;5.32;;
33858;SDS011;20156;47.486;12.074;2022-08-19T03:26:28;5.75;;;4.82;;
33858;SDS011;20156;47.486;12.074;2022-08-19T03:28:54;5.18;;;4.68;;
33858;SDS011;20156;47.486;12.074;2022-08-19T03:31:21;7.18;;;5.40;;
33858;SDS011;20156;47.486;12.074;2022-08-19T03:33:52;6.68;;;5.70;;
33858;SDS011;20156;47.486;12.074;2022-08-19T03:36:19;7.35;;;5.47;;
33858;SDS011;20156;47.486;12.074;2022-08-19T03:38:51;5.72;;;5.07;;
33858;SDS011;20156;47.486;12.074;2022-08-19T03:41:23;7.90;;;5.55;;
33858;SDS011;20156;47.486;12.074;2022-08-19T03:43:53;6.43;;;5.40;;
33858;SDS011;20156;47.486;12.074;2022-08-19T03:46:21;6.57;;;5.25;;
33858;SDS011;20156;47.486;12.074;2022-08-19T03:48:51;5.80;;;5.22;;
33858;SDS011;20156;47.486;12.074;2022-08-19T03:51:24;7.60;;;5.20;;
33858;SDS011;20156;47.486;12.074;2022-08-19T03:53:56;6.70;;;6.00;;
33858;SDS011;20156;47.486;12.074;2022-08-19T03:56:23;7.18;;;5.72;;
33858;SDS011;20156;47.486;12.074;2022-08-19T03:58:51;6.95;;;5.82;;
33858;SDS011;20156;47.486;12.074;2022-08-19T04:01:18;6.15;;;5.55;;
33858;SDS011;20156;47.486;12.074;2022-08-19T04:03:45;5.22;;;4.72;;
33858;SDS011;20156;47.486;12.074;2022-08-19T04:06:23;6.72;;;4.65;;
33858;SDS011;20156;47.486;12.074;2022-08-19T04:08:51;5.20;;;4.43;;
33858;SDS011;20156;47.486;12.074;2022-08-19T04:11:19;5.53;;;4.97;;
33858;SDS011;20156;47.486;12.074;2022-08-19T04:13:53;5.72;;;5.10;;
33858;SDS011;20156;47.486;12.074;2022-08-19T04:16:19;5.97;;;5.40;;
33858;SDS011;20156;47.486;12.074;2022-08-19T04:18:47;7.28;;;6.57;;
33858;SDS011;20156;47.486;12.074;2022-08-19T04:21:17;8.00;;;7.18;;
33858;SDS011;20156;47.486;12.074;2022-08-19T04:23:44;10.05;;;8.70;;
33858;SDS011;20156;47.486;12.074;2022-08-19T04:26:17;9.57;;;6.30;;
33858;SDS011;20156;47.486;12.074;2022-08-19T04:28:48;7.13;;;6.30;;
33858;SDS011;20156;47.486;12.074;2022-08-19T04:31:14;6.07;;;5.47;;
33858;SDS011;20156;47.486;12.074;2022-08-19T04:33:42;11.30;;;6.05;;
33858;SDS011;20156;47.486;12.074;2022-08-19T04:36:08;14.65;;;12.38;;
33858;SDS011;20156;47.486;12.074;2022-08-19T04:38:41;20.90;;;17.60;;
33858;SDS011;20156;47.486;12.074;2022-08-19T04:41:06;14.00;;;10.82;;
33858;SDS011;20156;47.486;12.074;2022-08-19T04:43:50;9.20;;;7.47;;
33858;SDS011;20156;47.486;12.074;2022-08-19T04:46:15;15.63;;;10.98;;
33858;SDS011;20156;47.486;12.074;2022-08-19T04:48:42;11.48;;;6.80;;
33858;SDS011;20156;47.486;12.074;2022-08-19T04:51:09;9.23;;;7.53;;
33858;SDS011;20156;47.486;12.074;2022-08-19T04:53:38;9.07;;;8.07;;
33858;SDS011;20156;47.486;12.074;2022-08-19T04:56:07;6.40;;;4.75;;
33858;SDS011;20156;47.486;12.074;2022-08-19T04:58:33;5.07;;;4.57;;
33858;SDS011;20156;47.486;12.074;2022-08-19T05:00:59;10.40;;;8.25;;
33858;SDS011;20156;47.486;12.074;2022-08-19T05:03:25;8.02;;;6.93;;
33858;SDS011;20156;47.486;12.074;2022-08-19T05:05:51;9.55;;;7.93;;
33858;SDS011;20156;47.486;12.074;2022-08-19T05:08:17;6.93;;;5.65;;
33858;SDS011;20156;47.486;12.074;2022-08-19T05:10:49;7.13;;;4.60;;
33858;SDS011;20156;47.486;12.074;2022-08-19T05:13:17;6.03;;;5.43;;
33858;SDS011;20156;47.486;12.074;2022-08-19T05:15:43;7.60;;;5.43;;
33858;SDS011;20156;47.486;12.074;2022-08-19T05:18:09;7.75;;;6.80;;
33858;SDS011;20156;47.486;12.074;2022-08-19T05:20:52;6.57;;;5.15;;
33858;SDS011;20156;47.486;12.074;2022-08-19T05:23:36;6.85;;;5.20;;
33858;SDS011;20156;47.486;12.074;2022-08-19T05:26:02;6.63;;;5.32;;
33858;SDS011;20156;47.486;12.074;2022-08-19T05:28:28;10.75;;;9.18;;
33858;SDS011;20156;47.486;12.074;2022-08-19T05:30:53;13.32;;;9.70;;
33858;SDS011;20156;47.486;12.074;2022-08-19T05:33:20;8.07;;;6.95;;
33858;SDS011;20156;47.486;12.074;2022-08-19T05:35:47;12.27;;;10.10;;
33858;SDS011;20156;47.486;12.074;2022-08-19T05:38:14;10.80;;;9.00;;
33858;SDS011;20156;47.486;12.074;2022-08-19T05:40:40;6.82;;;6.00;;
33858;SDS011;20156;47.486;12.074;2022-08-19T05:43:06;6.47;;;5.80;;
33858;SDS011;20156;47.486;12.074;2022-08-19T05:45:37;8.32;;;6.93;;
33858;SDS011;20156;47.486;12.074;2022-08-19T05:48:04;9.15;;;8.25;;
33858;SDS011;20156;47.486;12.074;2022-08-19T05:50:30;7.82;;;6.15;;
33858;SDS011;20156;47.486;12.074;2022-08-19T05:52:55;7.20;;;6.10;;
33858;SDS011;20156;47.486;12.074;2022-08-19T05:55:20;15.32;;;7.97;;
33858;SDS011;20156;47.486;12.074;2022-08-19T05:57:47;17.35;;;8.52;;
33858;SDS011;20156;47.486;12.074;2022-08-19T06:00:13;11.65;;;8.10;;
33858;SDS011;20156;47.486;12.074;2022-08-19T06:02:39;12.32;;;8.30;;
33858;SDS011;20156;47.486;12.074;2022-08-19T06:05:06;10.35;;;8.55;;
33858;SDS011;20156;47.486;12.074;2022-08-19T06:07:37;10.95;;;9.48;;
33858;SDS011;20156;47.486;12.074;2022-08-19T06:10:04;11.45;;;7.97;;
33858;SDS011;20156;47.486;12.074;2022-08-19T06:12:32;9.48;;;7.47;;
33858;SDS011;20156;47.486;12.074;2022-08-19T06:14:59;9.18;;;6.55;;
33858;SDS011;20156;47.486;12.074;2022-08-19T06:17:31;8.52;;;6.75;;
33858;SDS011;20156;47.486;12.074;2022-08-19T06:19:59;10.10;;;5.95;;
33858;SDS011;20156;47.486;12.074;2022-08-19T06:22:25;9.35;;;6.50;;
33858;SDS011;20156;47.486;12.074;2022-08-19T06:24:51;9.65;;;6.40;;
33858;SDS011;20156;47.486;12.074;2022-08-19T06:27:18;8.10;;;6.80;;
33858;SDS011;20156;47.486;12.074;2022-08-19T06:29:45;10.38;;;5.63;;
33858;SDS011;20156;47.486;12.074;2022-08-19T06:32:12;10.02;;;6.05;;
33858;SDS011;20156;47.486;12.074;2022-08-19T06:34:41;7.93;;;6.40;;
33858;SDS011;20156;47.486;12.074;2022-08-19T06:37:06;9.73;;;6.40;;
33858;SDS011;20156;47.486;12.074;2022-08-19T06:39:33;7.18;;;6.03;;
33858;SDS011;20156;47.486;12.074;2022-08-19T06:42:02;10.68;;;6.47;;
33858;SDS011;20156;47.486;12.074;2022-08-19T06:44:32;8.38;;;6.30;;
33858;SDS011;20156;47.486;12.074;2022-08-19T06:47:01;12.00;;;7.10;;
33858;SDS011;20156;47.486;12.074;2022-08-19T06:49:28;9.48;;;7.43;;
33858;SDS011;20156;47.486;12.074;2022-08-19T06:51:55;9.30;;;7.95;;
33858;SDS011;20156;47.486;12.074;2022-08-19T06:54:23;7.88;;;6.97;;
33858;SDS011;20156;47.486;12.074;2022-08-19T06:56:49;9.15;;;8.25;;
33858;SDS011;20156;47.486;12.074;2022-08-19T06:59:17;9.55;;;8.60;;
33858;SDS011;20156;47.486;12.074;2022-08-19T07:01:47;9.95;;;8.95;;
33858;SDS011;20156;47.486;12.074;2022-08-19T07:04:15;8.77;;;7.97;;
33858;SDS011;20156;47.486;12.074;2022-08-19T07:06:44;10.35;;;7.90;;
33858;SDS011;20156;47.486;12.074;2022-08-19T07:09:11;9.13;;;8.02;;
33858;SDS011;20156;47.486;12.074;2022-08-19T07:11:46;7.90;;;7.00;;
33858;SDS011;20156;47.486;12.074;2022-08-19T07:14:13;9.18;;;8.18;;
33858;SDS011;20156;47.486;12.074;2022-08-19T07:16:42;12.70;;;8.68;;
33858;SDS011;20156;47.486;12.074;2022-08-19T07:19:10;11.05;;;8.85;;
33858;SDS011;20156;47.486;12.074;2022-08-19T07:21:36;11.85;;;8.85;;
33858;SDS011;20156;47.486;12.074;2022-08-19T07:24:02;12.85;;;7.90;;
33858;SDS011;20156;47.486;12.074;2022-08-19T07:26:29;10.57;;;9.30;;
33858;SDS011;20156;47.486;12.074;2022-08-19T07:28:57;8.90;;;6.65;;
33858;SDS011;20156;47.486;12.074;2022-08-19T07:31:24;10.20;;;6.68;;
33858;SDS011;20156;47.486;12.074;2022-08-19T07:33:52;9.52;;;8.10;;
33858;SDS011;20156;47.486;12.074;2022-08-19T07:36:21;8.90;;;7.43;;
33858;SDS011;20156;47.486;12.074;2022-08-19T07:38:49;9.55;;;7.78;;
33858;SDS011;20156;47.486;12.074;2022-08-19T07:41:18;8.23;;;7.43;;
33858;SDS011;20156;47.486;12.074;2022-08-19T07:43:47;10.60;;;8.05;;
33858;SDS011;20156;47.486;12.074;2022-08-19T07:46:14;23.17;;;16.80;;
33858;SDS011;20156;47.486;12.074;2022-08-19T07:48:41;14.70;;;10.85;;
33858;SDS011;20156;47.486;12.074;2022-08-19T07:51:10;8.85;;;7.95;;
33858;SDS011;20156;47.486;12.074;2022-08-19T07:53:37;8.45;;;7.32;;
33858;SDS011;20156;47.486;12.074;2022-08-19T07:56:03;10.40;;;8.32;;
33858;SDS011;20156;47.486;12.074;2022-08-19T07:58:31;9.18;;;8.27;;
33858;SDS011;20156;47.486;12.074;2022-08-19T08:00:58;12.27;;;9.75;;
33858;SDS011;20156;47.486;12.074;2022-08-19T08:03:24;10.95;;;9.85;;
33858;SDS011;20156;47.486;12.074;2022-08-19T08:06:10;12.18;;;10.00;;
33858;SDS011;20156;47.486;12.074;2022-08-19T08:08:55;10.73;;;9.73;;
33858;SDS011;20156;47.486;12.074;2022-08-19T08:11:36;10.85;;;9.82;;
33858;SDS011;20156;47.486;12.074;2022-08-19T08:14:31;11.68;;;9.77;;
33858;SDS011;20156;47.486;12.074;2022-08-19T08:17:00;10.35;;;9.27;;
33858;SDS011;20156;47.486;12.074;2022-08-19T08:19:26;9.52;;;7.45;;
33858;SDS011;20156;47.486;12.074;2022-08-19T08:21:53;12.43;;;8.38;;
33858;SDS011;20156;47.486;12.074;2022-08-19T08:24:20;8.88;;;7.97;;
33858;SDS011;20156;47.486;12.074;2022-08-19T08:26:46;10.60;;;9.50;;
33858;SDS011;20156;47.486;12.074;2022-08-19T08:29:12;9.10;;;7.93;;
33858;SDS011;20156;47.486;12.074;2022-08-19T08:31:39;8.80;;;7.95;;
33858;SDS011;20156;47.486;12.074;2022-08-19T08:34:05;9.98;;;7.50;;
33858;SDS011;20156;47.486;12.074;2022-08-19T08:36:31;9.48;;;8.50;;
33858;SDS011;20156;47.486;12.074;2022-08-19T08:39:00;7.70;;;6.88;;
33858;SDS011;20156;47.486;12.074;2022-08-19T08:41:37;8.77;;;7.63;;
33858;SDS011;20156;47.486;12.074;2022-08-19T08:44:20;8.27;;;7.25;;
33858;SDS011;20156;47.486;12.074;2022-08-19T08:46:49;7.15;;;6.10;;
33858;SDS011;20156;47.486;12.074;2022-08-19T08:52:25;7.10;;;6.40;;
33858;SDS011;20156;47.486;12.074;2022-08-19T08:54:53;12.15;;;7.97;;
33858;SDS011;20156;47.486;12.074;2022-08-19T09:00:11;25.05;;;22.30;;
33858;SDS011;20156;47.486;12.074;2022-08-19T09:02:47;19.52;;;16.75;;
33858;SDS011;20156;47.486;12.074;2022-08-19T09:05:12;13.75;;;12.30;;
33858;SDS011;20156;47.486;12.074;2022-08-19T09:16:00;12.10;;;10.48;;
33858;SDS011;20156;47.486;12.074;2022-08-19T09:18:43;17.33;;;14.32;;
33858;SDS011;20156;47.486;12.074;2022-08-19T09:21:17;7.88;;;7.15;;
33858;SDS011;20156;47.486;12.074;2022-08-19T09:23:42;7.78;;;7.03;;
33858;SDS011;20156;47.486;12.074;2022-08-19T09:26:09;6.57;;;5.95;;
33858;SDS011;20156;47.486;12.074;2022-08-19T09:28:38;8.20;;;7.40;;
33858;SDS011;20156;47.486;12.074;2022-08-19T09:31:18;10.95;;;7.95;;
33858;SDS011;20156;47.486;12.074;2022-08-19T09:33:46;8.85;;;7.55;;
33858;SDS011;20156;47.486;12.074;2022-08-19T09:36:17;5.93;;;5.35;;
33858;SDS011;20156;47.486;12.074;2022-08-19T09:38:47;6.18;;;5.60;;
33858;SDS011;20156;47.486;12.074;2022-08-19T09:41:14;6.22;;;5.63;;
33858;SDS011;20156;47.486;12.074;2022-08-19T09:43:43;8.88;;;7.13;;
33858;SDS011;20156;47.486;12.074;2022-08-19T09:46:10;6.70;;;6.10;;
33858;SDS011;20156;47.486;12.074;2022-08-19T09:48:37;6.45;;;5.90;;
33858;SDS011;20156;47.486;12.074;2022-08-19T09:51:08;6.90;;;6.25;;
33858;SDS011;20156;47.486;12.074;2022-08-19T09:53:36;5.72;;;5.15;;
33858;SDS011;20156;47.486;12.074;2022-08-19T09:56:03;5.65;;;5.15;;
33858;SDS011;20156;47.486;12.074;2022-08-19T09:58:30;5.78;;;5.28;;
33858;SDS011;20156;47.486;12.074;2022-08-19T10:00:57;4.80;;;4.20;;
33858;SDS011;20156;47.486;12.074;2022-08-19T10:03:24;3.38;;;3.08;;
33858;SDS011;20156;47.486;12.074;2022-08-19T10:05:51;3.67;;;3.13;;
33858;SDS011;20156;47.486;12.074;2022-08-19T10:08:22;3.10;;;2.90;;
33858;SDS011;20156;47.486;12.074;2022-08-19T10:10:50;3.13;;;2.90;;
33858;SDS011;20156;47.486;12.074;2022-08-19T10:13:17;6.30;;;4.20;;
33858;SDS011;20156;47.486;12.074;2022-08-19T10:15:47;3.58;;;3.28;;
33858;SDS011;20156;47.486;12.074;2022-08-19T10:18:15;4.38;;;3.72;;
33858;SDS011;20156;47.486;12.074;2022-08-19T10:20:45;2.70;;;2.50;;
33858;SDS011;20156;47.486;12.074;2022-08-19T10:23:12;2.35;;;2.15;;
33858;SDS011;20156;47.486;12.074;2022-08-19T10:25:38;2.88;;;2.67;;
33858;SDS011;20156;47.486;12.074;2022-08-19T10:28:04;3.75;;;2.90;;
33858;SDS011;20156;47.486;12.074;2022-08-19T10:30:32;3.85;;;2.85;;
33858;SDS011;20156;47.486;12.074;2022-08-19T10:32:58;4.75;;;4.22;;
33858;SDS011;20156;47.486;12.074;2022-08-19T10:35:23;3.20;;;3.00;;
33858;SDS011;20156;47.486;12.074;2022-08-19T10:37:54;4.03;;;3.63;;
33858;SDS011;20156;47.486;12.074;2022-08-19T10:40:24;3.28;;;2.53;;
33858;SDS011;20156;47.486;12.074;2022-08-19T10:42:51;4.97;;;3.83;;
33858;SDS011;20156;47.486;12.074;2022-08-19T10:45:17;9.10;;;6.88;;
33858;SDS011;20156;47.486;12.074;2022-08-19T10:47:42;2.50;;;2.30;;
33858;SDS011;20156;47.486;12.074;2022-08-19T10:50:08;3.67;;;3.15;;
33858;SDS011;20156;47.486;12.074;2022-08-19T10:52:52;4.20;;;3.80;;
33858;SDS011;20156;47.486;12.074;2022-08-19T10:55:22;2.92;;;2.72;;
33858;SDS011;20156;47.486;12.074;2022-08-19T10:58:11;2.67;;;2.47;;
33858;SDS011;20156;47.486;12.074;2022-08-19T11:00:38;3.08;;;2.83;;
33858;SDS011;20156;47.486;12.074;2022-08-19T11:03:05;2.92;;;2.72;;
33858;SDS011;20156;47.486;12.074;2022-08-19T11:05:30;2.75;;;2.55;;
33858;SDS011;20156;47.486;12.074;2022-08-19T11:07:56;2.85;;;2.65;;
33858;SDS011;20156;47.486;12.074;2022-08-19T11:10:21;2.28;;;2.10;;
33858;SDS011;20156;47.486;12.074;2022-08-19T11:12:48;5.20;;;3.65;;
33858;SDS011;20156;47.486;12.074;2022-08-19T11:15:19;4.50;;;3.50;;
33858;SDS011;20156;47.486;12.074;2022-08-19T11:17:45;2.80;;;2.60;;
33858;SDS011;20156;47.486;12.074;2022-08-19T11:20:11;3.75;;;3.05;;
33858;SDS011;20156;47.486;12.074;2022-08-19T11:22:39;4.25;;;3.85;;
33858;SDS011;20156;47.486;12.074;2022-08-19T11:25:05;3.00;;;2.80;;
33858;SDS011;20156;47.486;12.074;2022-08-19T11:27:32;2.80;;;2.60;;
33858;SDS011;20156;47.486;12.074;2022-08-19T11:30:01;2.65;;;2.45;;
33858;SDS011;20156;47.486;12.074;2022-08-19T11:32:28;3.00;;;2.78;;
33858;SDS011;20156;47.486;12.074;2022-08-19T11:34:53;2.75;;;2.55;;
33858;SDS011;20156;47.486;12.074;2022-08-19T11:37:19;2.80;;;2.60;;
33858;SDS011;20156;47.486;12.074;2022-08-19T11:39:44;3.50;;;2.75;;
33858;SDS011;20156;47.486;12.074;2022-08-19T11:42:10;2.90;;;2.70;;
33858;SDS011;20156;47.486;12.074;2022-08-19T11:44:54;3.03;;;2.83;;
33858;SDS011;20156;47.486;12.074;2022-08-19T11:47:19;2.47;;;2.28;;
33858;SDS011;20156;47.486;12.074;2022-08-19T11:49:46;3.13;;;2.83;;
33858;SDS011;20156;47.486;12.074;2022-08-19T11:52:12;2.67;;;2.47;;
33858;SDS011;20156;47.486;12.074;2022-08-19T11:54:37;2.95;;;2.63;;
33858;SDS011;20156;47.486;12.074;2022-08-19T11:57:03;2.90;;;2.70;;
33858;SDS011;20156;47.486;12.074;2022-08-19T11:59:29;3.03;;;2.78;;
33858;SDS011;20156;47.486;12.074;2022-08-19T12:01:55;5.68;;;5.18;;
33858;SDS011;20156;47.486;12.074;2022-08-19T12:04:21;2.90;;;2.70;;
33858;SDS011;20156;47.486;12.074;2022-08-19T12:06:47;3.10;;;2.80;;
33858;SDS011;20156;47.486;12.074;2022-08-19T12:09:13;3.00;;;2.70;;
33858;SDS011;20156;47.486;12.074;2022-08-19T12:11:40;2.75;;;2.55;;
33858;SDS011;20156;47.486;12.074;2022-08-19T12:14:06;2.88;;;2.40;;
33858;SDS011;20156;47.486;12.074;2022-08-19T12:16:35;3.20;;;3.00;;
33858;SDS011;20156;47.486;12.074;2022-08-19T12:19:01;3.17;;;2.97;;
33858;SDS011;20156;47.486;12.074;2022-08-19T12:21:31;2.90;;;2.45;;
33858;SDS011;20156;47.486;12.074;2022-08-19T12:23:58;2.97;;;2.67;;
33858;SDS011;20156;47.486;12.074;2022-08-19T12:26:26;2.70;;;2.50;;
33858;SDS011;20156;47.486;12.074;2022-08-19T12:28:52;2.75;;;2.47;;
33858;SDS011;20156;47.486;12.074;2022-08-19T12:31:18;2.60;;;2.40;;
33858;SDS011;20156;47.486;12.074;2022-08-19T12:33:44;3.38;;;2.80;;
33858;SDS011;20156;47.486;12.074;2022-08-19T12:36:11;3.40;;;2.80;;
33858;SDS011;20156;47.486;12.074;2022-08-19T12:38:39;2.88;;;2.45;;
33858;SDS011;20156;47.486;12.074;2022-08-19T12:41:05;2.60;;;2.40;;
33858;SDS011;20156;47.486;12.074;2022-08-19T12:43:35;3.00;;;2.80;;
33858;SDS011;20156;47.486;12.074;2022-08-19T12:46:03;3.00;;;2.80;;
33858;SDS011;20156;47.486;12.074;2022-08-19T12:48:29;3.80;;;2.70;;
33858;SDS011;20156;47.486;12.074;2022-08-19T12:50:56;3.10;;;2.90;;
33858;SDS011;20156;47.486;12.074;2022-08-19T12:53:21;3.08;;;2.80;;
33858;SDS011;20156;47.486;12.074;2022-08-19T12:55:47;3.28;;;2.78;;
33858;SDS011;20156;47.486;12.074;2022-08-19T12:58:13;3.58;;;2.75;;
33858;SDS011;20156;47.486;12.074;2022-08-19T13:00:38;2.92;;;2.63;;
33858;SDS011;20156;47.486;12.074;2022-08-19T13:03:04;2.78;;;2.58;;
33858;SDS011;20156;47.486;12.074;2022-08-19T13:05:30;2.95;;;2.70;;
33858;SDS011;20156;47.486;12.074;2022-08-19T13:07:58;3.85;;;2.78;;
33858;SDS011;20156;47.486;12.074;2022-08-19T13:10:31;2.60;;;2.40;;
33858;SDS011;20156;47.486;12.074;2022-08-19T13:12:59;4.13;;;2.50;;
33858;SDS011;20156;47.486;12.074;2022-08-19T13:15:26;3.05;;;2.78;;
33858;SDS011;20156;47.486;12.074;2022-08-19T13:17:53;2.78;;;2.58;;
33858;SDS011;20156;47.486;12.074;2022-08-19T13:20:20;2.65;;;2.45;;
33858;SDS011;20156;47.486;12.074;2022-08-19T13:22:47;2.90;;;2.70;;
33858;SDS011;20156;47.486;12.074;2022-08-19T13:25:13;3.58;;;3.28;;
33858;SDS011;20156;47.486;12.074;2022-08-19T13:27:41;3.28;;;2.97;;
33858;SDS011;20156;47.486;12.074;2022-08-19T13:30:08;3.97;;;3.55;;
33858;SDS011;20156;47.486;12.074;2022-08-19T13:32:54;3.38;;;3.10;;
33858;SDS011;20156;47.486;12.074;2022-08-19T13:35:39;4.05;;;3.38;;
33858;SDS011;20156;47.486;12.074;2022-08-19T13:38:06;4.00;;;3.70;;
33858;SDS011;20156;47.486;12.074;2022-08-19T13:40:32;4.55;;;3.63;;
33858;SDS011;20156;47.486;12.074;2022-08-19T13:43:01;3.90;;;3.60;;
33858;SDS011;20156;47.486;12.074;2022-08-19T13:45:29;3.40;;;3.20;;
33858;SDS011;20156;47.486;12.074;2022-08-19T13:47:58;2.83;;;2.13;;
33858;SDS011;20156;47.486;12.074;2022-08-19T13:50:25;2.95;;;2.00;;
33858;SDS011;20156;47.486;12.074;2022-08-19T13:52:53;1.73;;;1.63;;
33858;SDS011;20156;47.486;12.074;2022-08-19T13:55:19;1.70;;;1.60;;
33858;SDS011;20156;47.486;12.074;2022-08-19T13:57:45;3.65;;;2.00;;
33858;SDS011;20156;47.486;12.074;2022-08-19T14:00:15;3.05;;;1.92;;
33858;SDS011;20156;47.486;12.074;2022-08-19T14:02:43;6.13;;;2.30;;
33858;SDS011;20156;47.486;12.074;2022-08-19T14:05:10;2.10;;;1.90;;
33858;SDS011;20156;47.486;12.074;2022-08-19T14:07:37;2.40;;;2.20;;
33858;SDS011;20156;47.486;12.074;2022-08-19T14:10:04;3.20;;;2.10;;
33858;SDS011;20156;47.486;12.074;2022-08-19T14:12:31;3.78;;;1.88;;
33858;SDS011;20156;47.486;12.074;2022-08-19T14:14:57;2.13;;;1.58;;
33858;SDS011;20156;47.486;12.074;2022-08-19T14:17:23;4.80;;;2.40;;
33858;SDS011;20156;47.486;12.074;2022-08-19T14:19:49;5.20;;;2.30;;
33858;SDS011;20156;47.486;12.074;2022-08-19T14:22:20;3.03;;;1.85;;
33858;SDS011;20156;47.486;12.074;2022-08-19T14:24:46;3.78;;;2.67;;
33858;SDS011;20156;47.486;12.074;2022-08-19T14:27:12;6.00;;;2.50;;
33858;SDS011;20156;47.486;12.074;2022-08-19T14:29:38;2.63;;;2.22;;
33858;SDS011;20156;47.486;12.074;2022-08-19T14:32:03;2.35;;;1.40;;
33858;SDS011;20156;47.486;12.074;2022-08-19T14:34:29;1.50;;;1.30;;
33858;SDS011;20156;47.486;12.074;2022-08-19T14:36:56;3.28;;;1.52;;
33858;SDS011;20156;47.486;12.074;2022-08-19T14:39:22;3.20;;;1.20;;
33858;SDS011;20156;47.486;12.074;2022-08-19T14:41:47;3.05;;;1.20;;
33858;SDS011;20156;47.486;12.074;2022-08-19T14:44:13;1.77;;;1.33;;
33858;SDS011;20156;47.486;12.074;2022-08-19T14:46:38;2.97;;;1.30;;
33858;SDS011;20156;47.486;12.074;2022-08-19T14:49:05;2.03;;;1.50;;
33858;SDS011;20156;47.486;12.074;2022-08-19T14:51:31;3.45;;;1.80;;
33858;SDS011;20156;47.486;12.074;2022-08-19T14:53:57;3.10;;;1.70;;